Metar Aviation Weather Data SAEZ

30°C Temp
23°C Dewpoint
% Humidity
Temperature
13 KM/H
8 MPH
7 KTS
320°
North West

Wind Speed
Clear
Conditions
Pressure 1002.92 (hPa) - 29.62 (in)
Visibility 6.2 (mi) - 10.0 (km)

Current Conditions
SAEZ
Metar :SAEZ 142200Z 32007KT CAVOK 30/23 Q1003 NOSIG
Tue 14th January 19:00 pm

  Metar Aviation API Data Provided by https://www.checkwx.com/ PHP scripts by weather34.com ©2020